Time;durP1;ratioP1;P1;durP2;ratioP2;P2;SDS_P1;SDS_P2;PMS_P1;PMS_P2;Temp;Humidity;BMP_temperature;BMP_pressure;BME280_temperature;BME280_humidity;BME280_pressure;Samples;Min_cycle;Max_cycle;Signal;HPM_P1;HPM_P2
2023/02/27 05:21:39;;;;;;;;;0.25;0.25;;;;;16.70;43.54;102030.00;5069483;27;45749;-90
2023/02/27 05:24:44;;;;;;;;;0.75;0.75;;;;;17.40;44.38;102017.75;5076306;27;45458;-84
2023/02/27 05:27:15;;;;;;;;;0.75;0.75;;;;;18.42;44.53;102023.78;5063780;27;45451;-83
2023/02/27 05:29:55;;;;;;;;;0.00;0.00;;;;;19.35;44.37;102026.47;5067382;27;45396;-83
2023/02/27 05:32:40;;;;;;;;;1.00;1.00;;;;;20.40;43.88;102025.19;5071333;27;45487;-87
2023/02/27 05:35:33;;;;;;;;;2.00;2.00;;;;;21.26;43.65;102021.34;5069492;28;46202;-91
2023/02/27 05:38:01;;;;;;;;;0.75;0.75;;;;;21.95;43.05;102031.13;5065870;28;45333;-92
2023/02/27 05:40:47;;;;;;;;;1.00;1.00;;;;;22.61;42.72;102021.19;5067832;27;45262;-91
2023/02/27 05:43:21;;;;;;;;;0.67;0.67;;;;;23.12;42.08;102034.03;5070880;27;46493;-89
2023/02/27 05:45:51;;;;;;;;;2.00;0.00;;;;;23.55;41.94;102019.41;5069134;27;45435;-91
2023/02/27 05:48:23;;;;;;;;;1.00;1.00;;;;;24.00;41.58;102035.34;5070140;27;45865;-92
2023/02/27 05:50:51;;;;;;;;;0.00;0.00;;;;;24.33;41.23;102019.72;5067203;27;45532;-85
2023/02/27 05:53:21;;;;;;;;;0.33;0.33;;;;;24.64;40.99;102024.13;5069015;28;45563;-87
2023/02/27 05:55:51;;;;;;;;;0.00;0.00;;;;;24.92;40.71;102026.91;5069359;27;45398;-84
2023/02/27 05:58:20;;;;;;;;;0.00;0.00;;;;;25.15;40.45;102027.44;5070918;27;45479;-84
2023/02/27 06:01:02;;;;;;;;;1.00;1.00;;;;;25.35;40.02;102032.78;5069548;28;45603;-88
2023/02/27 06:03:29;;;;;;;;;1.00;0.00;;;;;25.52;39.68;102042.88;5066122;28;45521;-85
2023/02/27 06:05:58;;;;;;;;;0.00;0.00;;;;;25.65;39.47;102045.28;5063631;27;45482;-86
2023/02/27 06:08:23;;;;;;;;;1.00;1.00;;;;;25.76;39.26;102038.75;5072421;27;45190;-83
2023/02/27 06:10:49;;;;;;;;;2.00;1.00;;;;;25.86;38.82;102048.72;5060936;27;45289;-83
2023/02/27 06:13:16;;;;;;;;;0.00;0.00;;;;;25.97;38.98;102043.06;5069163;28;45389;-83
2023/02/27 06:15:42;;;;;;;;;0.00;0.00;;;;;26.07;38.85;102043.00;5065340;27;46761;-82
2023/02/27 06:18:09;;;;;;;;;0.00;0.00;;;;;26.16;38.44;102046.66;5072185;27;45428;-82
2023/02/27 06:20:34;;;;;;;;;0.00;0.00;;;;;26.25;38.01;102053.94;5064003;28;45652;-81
2023/02/27 06:22:59;;;;;;;;;1.00;0.00;;;;;26.30;38.56;102048.00;5064066;27;45428;-87
2023/02/27 06:25:25;;;;;;;;;0.00;0.00;;;;;26.38;37.85;102047.22;5069022;28;45457;-88
2023/02/27 06:27:50;;;;;;;;;2.00;0.00;;;;;26.49;38.33;102054.31;5077567;27;45555;-93
2023/02/27 06:30:16;;;;;;;;;0.00;0.00;;;;;26.61;37.93;102054.91;5072480;27;45532;-89
2023/02/27 06:32:41;;;;;;;;;0.33;0.33;;;;;26.71;37.39;102055.66;5047501;28;45745;-88
2023/02/27 06:35:07;;;;;;;;;2.00;2.00;;;;;26.83;37.97;102056.25;5055067;28;45804;-81
2023/02/27 06:37:32;;;;;;;;;0.00;0.00;;;;;26.91;37.73;102053.59;5051979;28;45320;-81
2023/02/27 06:39:58;;;;;;;;;2.00;0.00;;;;;27.06;37.32;102061.22;5053262;28;45514;-79
2023/02/27 06:42:23;;;;;;;;;0.00;0.00;;;;;27.16;36.91;102061.09;5053292;28;49415;-77
2023/02/27 06:44:49;;;;;;;;;0.00;0.00;;;;;27.25;37.09;102083.81;5051949;28;46453;-80
2023/02/27 06:47:14;;;;;;;;;1.67;0.00;;;;;27.27;37.12;102077.19;5052875;28;45540;-80
2023/02/27 06:49:40;;;;;;;;;1.33;1.33;;;;;27.29;37.06;102074.28;5054750;28;46931;-81
2023/02/27 06:52:05;;;;;;;;;0.00;0.00;;;;;27.30;36.76;102086.91;5056094;28;45965;-75
2023/02/27 06:54:31;;;;;;;;;1.00;1.00;;;;;27.29;36.73;102085.19;5052322;28;45751;-79
2023/02/27 06:56:56;;;;;;;;;1.33;0.67;;;;;27.24;36.51;102080.22;5053116;28;45693;-83
2023/02/27 06:59:21;;;;;;;;;0.00;0.00;;;;;27.24;36.07;102093.84;5055531;28;45416;-83
2023/02/27 07:01:47;;;;;;;;;1.00;1.00;;;;;27.21;36.45;102092.31;5055033;28;45430;-82
2023/02/27 07:04:13;;;;;;;;;0.00;0.00;;;;;27.20;35.70;102087.00;5055823;28;45483;-80
2023/02/27 07:06:39;;;;;;;;;0.00;0.00;;;;;27.17;35.54;102087.31;5055971;28;45444;-80
2023/02/27 07:09:04;;;;;;;;;0.00;0.00;;;;;27.13;35.50;102088.69;5050776;28;45399;-82
2023/02/27 07:11:30;;;;;;;;;0.00;0.00;;;;;27.13;36.22;102092.25;5054009;28;45886;-82
2023/02/27 07:13:55;;;;;;;;;0.33;0.33;;;;;27.17;36.15;102103.69;5054067;28;45656;-82
2023/02/27 07:16:21;;;;;;;;;0.00;0.00;;;;;27.18;35.38;102100.78;5055421;28;45604;-80
2023/02/27 07:18:46;;;;;;;;;0.00;0.00;;;;;27.23;35.64;102109.34;5047447;28;45467;-89
2023/02/27 07:21:12;;;;;;;;;0.00;0.00;;;;;27.29;35.95;102106.97;5042882;28;45395;-84
2023/02/27 07:23:37;;;;;;;;;0.00;0.00;;;;;27.32;35.65;102106.69;5041218;28;45460;-83
2023/02/27 07:26:04;;;;;;;;;1.00;1.00;;;;;27.44;35.81;102109.97;5049892;28;45341;-84
2023/02/27 07:28:29;;;;;;;;;0.00;0.00;;;;;27.52;35.38;102112.75;5048467;28;46972;-82
2023/02/27 07:30:55;;;;;;;;;0.00;0.00;;;;;27.59;35.31;102115.69;5046797;28;46161;-83
2023/02/27 07:33:21;;;;;;;;;0.00;0.00;;;;;27.64;34.79;102121.53;5055040;27;46957;-80
2023/02/27 07:35:47;;;;;;;;;0.33;0.33;;;;;27.69;34.56;102129.22;5056449;28;45525;-86
2023/02/27 07:38:12;;;;;;;;;0.00;0.00;;;;;27.72;34.65;102124.28;5054666;28;45509;-89
2023/02/27 07:40:37;;;;;;;;;0.00;0.00;;;;;27.75;34.62;102126.69;5052675;28;45426;-91
2023/02/27 07:43:03;;;;;;;;;0.00;0.00;;;;;27.81;34.84;102121.59;5053295;28;45483;-94
2023/02/27 07:45:28;;;;;;;;;0.00;0.00;;;;;27.84;34.60;102122.09;5055726;28;45543;-85
2023/02/27 07:47:53;;;;;;;;;0.00;0.00;;;;;27.86;34.33;102127.41;5052527;28;45685;-85
2023/02/27 07:50:19;;;;;;;;;0.00;0.00;;;;;27.89;34.59;102132.53;5054633;28;45512;-85
2023/02/27 07:52:45;;;;;;;;;0.00;0.00;;;;;27.91;34.26;102129.66;5054161;28;45427;-88
2023/02/27 07:55:12;;;;;;;;;0.00;0.00;;;;;27.95;34.07;102126.41;5052564;28;45513;-87
2023/02/27 07:57:37;;;;;;;;;1.00;1.00;;;;;28.01;34.72;102133.97;5058756;28;45767;-88
2023/02/27 08:00:05;;;;;;;;;0.00;0.00;;;;;28.07;34.19;102135.16;5054344;28;46042;-89
2023/02/27 08:02:31;;;;;;;;;0.00;0.00;;;;;28.14;33.91;102138.94;5050639;28;45727;-87
2023/02/27 08:04:56;;;;;;;;;0.00;0.00;;;;;28.19;34.35;102141.16;5053340;28;45392;-79
2023/02/27 08:07:22;;;;;;;;;1.00;1.00;;;;;28.24;34.42;102136.09;5050605;28;45471;-79
2023/02/27 08:09:47;;;;;;;;;0.00;0.00;;;;;28.31;34.11;102144.47;5054476;28;45684;-84
2023/02/27 08:12:12;;;;;;;;;1.00;1.00;;;;;28.36;34.39;102144.81;5051709;28;45478;-82
2023/02/27 08:14:38;;;;;;;;;1.00;1.00;;;;;28.38;34.32;102153.72;5043635;28;45508;-77
2023/02/27 08:17:03;;;;;;;;;0.00;0.00;;;;;28.39;33.88;102143.63;5044699;28;45698;-82
2023/02/27 08:19:29;;;;;;;;;0.00;0.00;;;;;28.41;33.81;102144.31;5035432;28;45455;-81
2023/02/27 08:21:54;;;;;;;;;0.00;0.00;;;;;28.39;33.77;102146.34;5049549;28;46902;-82
2023/02/27 08:24:20;;;;;;;;;0.67;0.67;;;;;28.35;33.89;102145.84;5044937;28;45381;-84
2023/02/27 08:26:45;;;;;;;;;3.00;2.33;;;;;28.33;34.05;102145.16;5051746;28;45430;-81
2023/02/27 08:29:10;;;;;;;;;3.33;2.00;;;;;28.21;33.26;102144.59;5048093;28;45556;-80
2023/02/27 08:31:36;;;;;;;;;8.67;5.00;;;;;28.10;32.98;102145.75;5052337;28;45506;-85
2023/02/27 08:34:01;;;;;;;;;1.33;1.33;;;;;28.00;33.51;102148.59;5053193;28;45527;-80
2023/02/27 08:36:26;;;;;;;;;3.00;3.00;;;;;27.95;33.55;102145.50;5048750;28;45578;-85
2023/02/27 08:38:52;;;;;;;;;5.67;2.33;;;;;27.87;32.91;102140.88;5051302;28;46066;-84
2023/02/27 08:41:17;;;;;;;;;10.00;4.67;;;;;27.91;33.11;102152.31;5051419;28;45407;-85
2023/02/27 08:43:42;;;;;;;;;6.00;3.33;;;;;27.95;33.40;102156.44;5054486;28;45366;-84
2023/02/27 08:46:07;;;;;;;;;4.67;3.67;;;;;28.06;33.46;102157.16;5054502;28;48121;-85
2023/02/27 08:48:33;;;;;;;;;4.00;2.00;;;;;28.15;33.48;102161.63;5054024;28;45923;-85
2023/02/27 08:50:58;;;;;;;;;2.33;2.33;;;;;28.25;33.26;102165.09;5053417;28;45466;-84
2023/02/27 08:53:25;;;;;;;;;6.67;4.67;;;;;28.37;33.10;102162.91;5051577;28;45289;-85
2023/02/27 08:55:50;;;;;;;;;3.33;1.33;;;;;28.46;32.99;102157.44;5051166;28;45478;-83
2023/02/27 08:58:17;;;;;;;;;2.67;1.00;;;;;28.59;33.20;102162.41;5060306;28;45495;-83
2023/02/27 09:00:42;;;;;;;;;5.00;3.00;;;;;28.69;32.89;102168.56;5055364;28;45526;-84
2023/02/27 09:03:07;;;;;;;;;3.00;1.67;;;;;28.76;32.61;102161.41;5054328;28;45812;-84
2023/02/27 09:05:34;;;;;;;;;2.33;2.33;;;;;28.79;32.90;102160.22;5053475;28;45597;-83
2023/02/27 09:08:00;;;;;;;;;4.33;3.00;;;;;28.79;32.77;102163.81;5054386;28;45482;-83
2023/02/27 09:10:26;;;;;;;;;4.67;2.67;;;;;28.80;33.06;102157.31;5056324;28;45556;-87
2023/02/27 09:12:52;;;;;;;;;2.33;1.00;;;;;28.82;32.49;102162.63;5052784;28;45638;-87
2023/02/27 09:15:18;;;;;;;;;2.67;2.33;;;;;28.86;32.25;102161.25;5048317;28;45557;-87
2023/02/27 09:17:43;;;;;;;;;2.00;2.00;;;;;28.90;32.38;102165.38;5053688;28;46481;-81
2023/02/27 09:20:10;;;;;;;;;3.67;2.33;;;;;28.97;33.05;102175.63;5051639;28;45864;-79
2023/02/27 09:22:35;;;;;;;;;1.00;1.00;;;;;29.02;32.38;102165.88;5046774;28;45338;-81
2023/02/27 09:25:00;;;;;;;;;1.67;1.33;;;;;29.06;32.20;102166.41;5051424;28;45683;-82
2023/02/27 09:27:26;;;;;;;;;2.00;2.00;;;;;29.12;32.39;102168.44;5053483;28;46202;-82
2023/02/27 09:29:54;;;;;;;;;2.00;2.00;;;;;29.15;32.33;102170.84;5048108;28;48805;-83
2023/02/27 09:32:23;;;;;;;;;1.00;1.00;;;;;29.23;32.43;102177.31;5051460;28;45454;-82
2023/02/27 09:34:49;;;;;;;;;1.67;1.33;;;;;29.26;32.24;102164.16;5053171;28;45454;-81
2023/02/27 09:37:14;;;;;;;;;1.00;1.00;;;;;29.32;32.17;102170.81;5048152;28;46273;-81
2023/02/27 09:39:40;;;;;;;;;1.67;1.00;;;;;29.40;32.00;102178.13;5053175;28;45579;-81
2023/02/27 09:42:14;;;;;;;;;2.00;2.00;;;;;29.46;32.56;102175.56;5052321;28;45623;-79
2023/02/27 09:44:46;;;;;;;;;3.67;2.33;;;;;29.53;31.82;102180.34;5047492;28;45404;-80
2023/02/27 09:47:44;;;;;;;;;2.00;2.00;;;;;29.57;32.14;102182.59;5053045;28;45805;-80
2023/02/27 09:50:37;;;;;;;;;4.00;1.67;;;;;29.59;32.22;102177.78;5049702;28;45514;-80
2023/02/27 09:53:09;;;;;;;;;0.33;0.33;;;;;29.60;32.13;102170.44;5053214;28;45745;-80
2023/02/27 09:55:39;;;;;;;;;1.33;0.33;;;;;29.59;31.91;102183.25;5051851;28;45535;-79
2023/02/27 09:58:27;;;;;;;;;2.67;2.67;;;;;29.56;31.69;102178.16;5052066;28;45483;-78
2023/02/27 10:00:58;;;;;;;;;2.00;1.00;;;;;29.56;31.95;102183.63;5041550;28;45400;-78
2023/02/27 10:03:47;;;;;;;;;2.67;1.67;;;;;29.53;31.74;102188.56;5051409;28;45399;-82
2023/02/27 10:06:23;;;;;;;;;1.00;1.00;;;;;29.42;31.52;102192.50;5055717;28;46015;-80
2023/02/27 10:09:21;;;;;;;;;1.00;1.00;;;;;29.27;31.42;102185.00;5057019;28;45402;-81
2023/02/27 10:12:10;;;;;;;;;1.33;1.33;;;;;29.19;31.68;102199.53;5046345;28;45282;-83
2023/02/27 10:14:45;;;;;;;;;2.67;2.00;;;;;29.18;31.25;102192.34;5057953;28;45895;-82
2023/02/27 10:17:34;;;;;;;;;0.33;0.00;;;;;29.16;31.17;102182.63;5058163;28;45487;-81
2023/02/27 10:20:07;;;;;;;;;0.33;0.33;;;;;29.14;31.75;102190.16;5050795;28;46621;-82
2023/02/27 10:22:38;;;;;;;;;1.67;0.33;;;;;29.13;31.25;102181.06;5045898;28;45452;-81
2023/02/27 10:25:12;;;;;;;;;0.67;0.67;;;;;29.13;31.71;102193.88;5056803;28;45306;-81
2023/02/27 10:27:38;;;;;;;;;1.00;1.00;;;;;29.12;31.44;102183.97;5050123;28;45482;-81
2023/02/27 10:30:28;;;;;;;;;1.33;1.00;;;;;29.13;31.25;102191.16;5053553;28;45860;-81
2023/02/27 10:33:03;;;;;;;;;0.00;0.00;;;;;29.13;31.50;102185.69;5056024;28;45513;-81
2023/02/27 10:35:38;;;;;;;;;1.00;1.00;;;;;29.12;31.33;102187.56;5041133;28;45416;-83
2023/02/27 10:38:12;;;;;;;;;4.00;2.00;;;;;29.13;30.93;102185.69;5055189;28;45642;-83
2023/02/27 10:40:40;;;;;;;;;0.00;0.00;;;;;29.13;31.43;102180.22;5055793;28;45442;-82
2023/02/27 10:43:06;;;;;;;;;1.00;1.00;;;;;29.13;31.34;102181.06;5054568;28;45410;-82
2023/02/27 10:45:32;;;;;;;;;2.00;2.00;;;;;29.15;31.39;102189.13;5050342;28;45829;-81
2023/02/27 10:47:57;;;;;;;;;2.00;0.33;;;;;29.17;31.55;102187.06;5055184;28;45383;-83
2023/02/27 10:50:25;;;;;;;;;1.00;1.00;;;;;29.21;31.35;102182.13;5047238;28;45867;-84
2023/02/27 10:52:53;;;;;;;;;0.00;0.00;;;;;29.21;31.00;102182.13;5041405;28;45351;-87
2023/02/27 10:55:25;;;;;;;;;1.00;1.00;;;;;29.30;31.29;102183.81;5053930;28;45440;-83
2023/02/27 10:57:54;;;;;;;;;1.00;1.00;;;;;29.35;31.25;102195.09;5048615;28;45537;-82
2023/02/27 11:00:26;;;;;;;;;1.00;1.00;;;;;29.41;31.16;102185.31;5043730;28;45566;-82
2023/02/27 11:02:52;;;;;;;;;1.00;1.00;;;;;29.43;30.96;102189.56;5053720;28;45361;-80
2023/02/27 11:05:26;;;;;;;;;0.00;0.00;;;;;29.49;31.04;102179.81;5054218;28;45462;-79
2023/02/27 11:07:52;;;;;;;;;1.33;1.00;;;;;29.52;30.68;102176.78;5054146;28;45496;-78
2023/02/27 11:10:27;;;;;;;;;1.00;0.00;;;;;29.55;30.91;102175.59;5054815;28;46287;-80
2023/02/27 11:13:01;;;;;;;;;0.67;0.33;;;;;29.58;31.04;102162.41;5065425;28;45529;-78
2023/02/27 11:15:30;;;;;;;;;1.00;0.67;;;;;29.63;30.69;102185.66;5054739;28;45541;-78
2023/02/27 11:18:26;;;;;;;;;1.00;1.00;;;;;29.67;30.53;102174.16;5055407;28;45468;-78
2023/02/27 11:20:53;;;;;;;;;0.67;0.67;;;;;29.69;31.01;102172.13;5046502;28;45990;-80
2023/02/27 11:23:21;;;;;;;;;1.00;1.00;;;;;29.71;31.05;102164.56;5042819;28;45440;-83
2023/02/27 11:25:47;;;;;;;;;0.67;0.00;;;;;29.74;31.15;102160.63;5055472;28;45557;-85
2023/02/27 11:28:27;;;;;;;;;4.00;2.33;;;;;29.78;31.13;102159.25;5054673;28;45546;-81
2023/02/27 11:31:01;;;;;;;;;0.00;0.00;;;;;29.82;30.47;102159.75;5055207;28;46005;-83
2023/02/27 11:33:28;;;;;;;;;1.00;0.33;;;;;29.82;30.84;102157.88;5054084;28;45503;-83
2023/02/27 11:35:55;;;;;;;;;1.00;1.00;;;;;29.84;30.37;102164.00;5053862;28;45452;-83
2023/02/27 11:38:24;;;;;;;;;0.00;0.00;;;;;29.85;30.76;102149.31;5055751;28;45431;-83
2023/02/27 11:40:52;;;;;;;;;1.00;1.00;;;;;29.87;30.83;102145.53;5051990;28;46444;-85
2023/02/27 11:43:20;;;;;;;;;2.33;1.00;;;;;29.90;30.84;102151.50;5052884;28;45542;-85
2023/02/27 11:45:52;;;;;;;;;2.00;2.00;;;;;29.92;30.62;102143.13;5054956;28;45566;-85
2023/02/27 11:48:45;;;;;;;;;0.67;0.00;;;;;29.96;30.88;102142.56;5055448;28;45301;-86
2023/02/27 11:51:10;;;;;;;;;1.00;1.00;;;;;30.01;30.98;102150.25;5042486;28;46077;-86
2023/02/27 11:53:51;;;;;;;;;0.00;0.00;;;;;30.06;30.75;102145.09;5054879;28;45388;-85
2023/02/27 11:56:31;;;;;;;;;1.33;1.33;;;;;30.10;30.68;102142.84;5053605;28;45482;-79
2023/02/27 11:59:09;;;;;;;;;0.00;0.00;;;;;30.13;30.56;102137.06;5057031;28;45644;-80
2023/02/27 12:01:56;;;;;;;;;4.00;2.67;;;;;30.15;30.47;102129.50;5045386;28;45416;-82
2023/02/27 12:04:52;;;;;;;;;2.00;1.00;;;;;30.05;29.82;102129.72;5050494;28;45703;-78
2023/02/27 12:07:30;;;;;;;;;3.00;2.33;;;;;29.91;29.91;102127.72;5044211;28;45496;-81
2023/02/27 12:10:29;;;;;;;;;2.00;2.00;;;;;29.74;29.90;102114.13;5054202;28;45529;-81
2023/02/27 12:13:01;;;;;;;;;0.67;0.33;;;;;29.56;29.23;102104.28;5042819;28;45447;-81
2023/02/27 12:15:33;;;;;;;;;1.67;1.67;;;;;29.40;29.27;102102.44;5054117;28;45472;-79
2023/02/27 12:18:10;;;;;;;;;1.33;1.33;;;;;29.29;29.32;102106.38;5058665;28;45503;-80
2023/02/27 12:20:51;;;;;;;;;3.67;2.33;;;;;29.18;29.35;102109.50;5053906;28;45536;-81
2023/02/27 12:23:39;;;;;;;;;1.67;1.67;;;;;29.08;29.10;102101.47;5055939;28;46415;-81
2023/02/27 12:26:20;;;;;;;;;2.00;1.67;;;;;28.97;29.33;102107.31;5044467;28;45555;-81
2023/02/27 12:29:15;;;;;;;;;1.00;0.33;;;;;28.90;29.49;102107.97;5053883;28;46337;-81
2023/02/27 12:31:59;;;;;;;;;3.33;2.00;;;;;28.85;29.10;102112.25;5054219;28;45447;-82
2023/02/27 12:34:46;;;;;;;;;3.00;1.00;;;;;28.82;29.29;102107.13;5048485;28;45698;-83
2023/02/27 12:37:27;;;;;;;;;0.67;0.67;;;;;28.78;29.03;102104.72;5042633;28;45478;-82
2023/02/27 12:39:59;;;;;;;;;1.00;0.00;;;;;28.73;29.54;102093.44;5053474;28;45484;-84
2023/02/27 12:42:37;;;;;;;;;2.00;1.00;;;;;28.75;29.31;102096.03;5053466;28;45715;-80
2023/02/27 12:45:21;;;;;;;;;0.00;0.00;;;;;28.84;29.61;102092.25;5054002;28;46083;-81
2023/02/27 12:48:24;;;;;;;;;2.00;0.00;;;;;28.98;29.83;102092.63;5067722;28;45321;-80
2023/02/27 12:51:01;;;;;;;;;2.33;0.00;;;;;29.12;29.59;102094.63;5052152;28;45713;-80
2023/02/27 12:53:54;;;;;;;;;1.00;1.00;;;;;29.28;28.89;102087.41;5054245;28;45446;-80
2023/02/27 12:56:25;;;;;;;;;0.00;0.00;;;;;29.39;29.21;102087.03;5053040;28;45486;-82
2023/02/27 12:58:54;;;;;;;;;1.67;0.67;;;;;29.51;29.04;102082.06;5059728;28;45581;-81
2023/02/27 13:01:46;;;;;;;;;2.00;1.33;;;;;29.62;29.24;102074.53;5057299;28;45489;-82
2023/02/27 13:04:26;;;;;;;;;2.00;1.00;;;;;29.72;28.93;102083.34;5055204;28;46753;-79
2023/02/27 13:07:03;;;;;;;;;2.67;1.00;;;;;29.78;28.83;102074.44;5053399;28;46173;-79
2023/02/27 13:09:37;;;;;;;;;2.00;1.00;;;;;29.81;29.07;102063.13;5046517;28;45475;-78
2023/02/27 13:12:24;;;;;;;;;1.00;1.00;;;;;29.85;29.24;102061.75;5059269;28;45459;-80
2023/02/27 13:15:02;;;;;;;;;0.00;0.00;;;;;29.90;29.33;102060.31;5053249;28;45546;-79
2023/02/27 13:17:37;;;;;;;;;2.00;0.33;;;;;29.94;29.08;102053.47;5053489;28;46011;-79
2023/02/27 13:20:34;;;;;;;;;1.00;1.00;;;;;30.01;29.16;102051.72;5052087;28;45505;-78
2023/02/27 13:23:12;;;;;;;;;1.00;1.00;;;;;30.02;29.09;102058.91;5031514;28;45520;-90
2023/02/27 13:25:44;;;;;;;;;0.00;0.00;;;;;30.06;29.21;102048.41;5030071;28;45535;-82
2023/02/27 13:28:15;;;;;;;;;0.33;0.33;;;;;30.06;28.92;102051.16;5031405;28;46364;-82
2023/02/27 13:30:45;;;;;;;;;3.67;0.67;;;;;29.98;29.24;102044.72;5031405;28;45895;-80
2023/02/27 13:33:16;;;;;;;;;2.00;1.67;;;;;29.89;28.94;102054.03;5031314;28;45577;-79
2023/02/27 13:36:03;;;;;;;;;2.00;2.00;;;;;29.83;28.48;102050.09;5031276;28;45453;-79
2023/02/27 13:38:49;;;;;;;;;1.67;1.00;;;;;29.81;28.97;102065.88;5035608;28;46133;-80
2023/02/27 13:41:20;;;;;;;;;1.00;1.00;;;;;29.82;29.25;102042.06;5028970;28;45838;-79
2023/02/27 13:43:50;;;;;;;;;0.33;0.33;;;;;29.82;29.03;102036.59;5031716;28;45788;-80
2023/02/27 13:46:22;;;;;;;;;3.00;0.00;;;;;29.86;28.68;102054.38;5038037;28;45684;-78
2023/02/27 13:49:03;;;;;;;;;1.33;1.33;;;;;29.87;28.95;102042.38;5043954;28;46212;-80
2023/02/27 13:51:35;;;;;;;;;1.00;1.00;;;;;29.93;28.71;102043.56;5042400;28;45494;-80
2023/02/27 13:54:14;;;;;;;;;1.33;0.00;;;;;29.95;28.97;102046.94;5043371;28;45506;-80
2023/02/27 13:57:04;;;;;;;;;3.00;1.00;;;;;29.98;28.91;102049.34;5039554;28;45422;-82
2023/02/27 13:59:32;;;;;;;;;0.67;0.67;;;;;30.04;28.85;102053.25;5042654;28;45727;-80
2023/02/27 14:02:09;;;;;;;;;1.00;1.00;;;;;30.04;28.63;102056.81;5057913;28;45471;-87
2023/02/27 14:04:50;;;;;;;;;0.00;0.00;;;;;30.02;28.98;102045.22;5045138;28;45377;-84
2023/02/27 14:07:20;;;;;;;;;1.00;1.00;;;;;30.04;29.06;102058.72;5055529;28;45533;-82
2023/02/27 14:09:52;;;;;;;;;1.33;1.00;;;;;30.02;28.55;102058.91;5052264;28;46781;-81
2023/02/27 14:12:36;;;;;;;;;1.00;1.00;;;;;29.98;28.69;102055.66;5047566;28;45476;-83
2023/02/27 14:15:22;;;;;;;;;4.67;2.33;;;;;29.98;28.97;102057.53;5049966;28;45310;-83
2023/02/27 14:18:28;;;;;;;;;0.00;0.00;;;;;29.96;28.78;102063.19;5054359;28;45603;-83
2023/02/27 14:20:53;;;;;;;;;2.00;0.00;;;;;29.94;28.71;102054.31;5043147;28;45514;-83
2023/02/27 14:23:25;;;;;;;;;1.00;0.00;;;;;29.95;28.88;102046.94;5055041;28;45515;-84
2023/02/27 14:25:55;;;;;;;;;0.00;0.00;;;;;29.93;28.73;102052.63;5065173;28;45472;-80
2023/02/27 14:28:20;;;;;;;;;1.00;0.67;;;;;29.92;28.89;102058.28;5060680;27;45318;-85
2023/02/27 14:30:57;;;;;;;;;1.00;1.00;;;;;29.87;28.15;102052.50;5066070;28;46206;-85
2023/02/27 14:33:27;;;;;;;;;0.00;0.00;;;;;29.73;28.58;102049.50;5055889;28;45683;-85
2023/02/27 14:35:58;;;;;;;;;0.00;0.00;;;;;29.54;28.58;102031.63;5056549;28;45438;-84
2023/02/27 14:38:26;;;;;;;;;0.00;0.00;;;;;29.40;29.02;102047.75;5056046;28;45443;-85
2023/02/27 14:41:12;;;;;;;;;0.00;0.00;;;;;29.25;28.27;102054.94;5051170;28;45459;-85
2023/02/27 14:43:42;;;;;;;;;2.00;2.00;;;;;29.10;28.38;102038.44;5052660;28;45336;-86
2023/02/27 14:46:17;;;;;;;;;2.67;0.00;;;;;29.00;28.90;102046.81;5057647;28;45579;-85
2023/02/27 14:48:44;;;;;;;;;0.67;0.67;;;;;28.88;28.48;102054.50;5065879;28;45502;-81
2023/02/27 14:51:10;;;;;;;;;1.67;1.00;;;;;28.76;28.24;102062.19;5054956;28;45430;-81
2023/02/27 14:53:35;;;;;;;;;1.00;1.00;;;;;28.67;28.49;102051.31;5055326;28;45537;-80
2023/02/27 14:56:00;;;;;;;;;1.67;0.67;;;;;28.62;28.24;102039.19;5055628;28;45502;-80
2023/02/27 14:58:27;;;;;;;;;3.00;2.33;;;;;28.58;28.05;102040.53;5056191;28;46492;-79
2023/02/27 15:00:56;;;;;;;;;1.00;1.00;;;;;28.53;28.19;102058.28;5055525;28;46201;-80
2023/02/27 15:03:26;;;;;;;;;1.33;0.00;;;;;28.49;28.22;102045.16;5056133;28;45505;-81
2023/02/27 15:05:57;;;;;;;;;0.00;0.00;;;;;28.43;28.54;102035.78;5050860;28;45480;-80
2023/02/27 15:08:27;;;;;;;;;3.00;0.00;;;;;28.40;29.04;102042.44;5059465;27;45433;-81
2023/02/27 15:10:54;;;;;;;;;3.33;1.00;;;;;28.38;28.33;102041.75;5052604;28;45768;-80
2023/02/27 15:13:22;;;;;;;;;0.00;0.00;;;;;28.37;28.79;102028.28;5055866;28;45383;-81
2023/02/27 15:15:48;;;;;;;;;0.67;0.67;;;;;28.40;28.37;102023.31;5055454;28;45455;-80
2023/02/27 15:18:13;;;;;;;;;1.67;1.67;;;;;28.49;28.27;102035.09;5056191;28;45596;-81
2023/02/27 15:20:39;;;;;;;;;0.00;0.00;;;;;28.57;28.98;102020.56;5054148;28;45428;-81
2023/02/27 15:23:21;;;;;;;;;3.00;3.00;;;;;28.62;28.52;102031.84;5060476;28;45470;-77
2023/02/27 15:25:47;;;;;;;;;5.00;2.00;;;;;28.59;28.40;102025.84;5058443;28;45461;-84
2023/02/27 15:28:26;;;;;;;;;1.67;1.00;;;;;28.60;28.43;102033.88;5054668;28;45411;-86
2023/02/27 15:30:54;;;;;;;;;3.00;2.00;;;;;28.59;28.73;102029.44;5055226;28;46405;-84
2023/02/27 15:33:26;;;;;;;;;3.00;2.00;;;;;28.58;28.32;102032.34;5053802;28;45297;-84
2023/02/27 15:35:51;;;;;;;;;1.00;1.00;;;;;28.55;28.53;102025.34;5050642;28;45507;-85
2023/02/27 15:38:29;;;;;;;;;0.33;0.33;;;;;28.54;28.36;102023.66;5055022;28;45521;-85
2023/02/27 15:40:56;;;;;;;;;0.67;0.67;;;;;28.56;28.27;102024.31;5054119;28;45781;-84
2023/02/27 15:43:23;;;;;;;;;0.67;0.67;;;;;28.56;28.58;102023.50;5053717;28;45502;-82
2023/02/27 15:45:49;;;;;;;;;1.00;1.00;;;;;28.55;28.55;102030.81;5055208;28;45505;-87
2023/02/27 15:48:17;;;;;;;;;2.33;1.00;;;;;28.56;29.08;102023.50;5054109;28;45545;-87
2023/02/27 15:50:46;;;;;;;;;5.33;2.00;;;;;28.55;28.21;102028.09;5054497;28;45515;-86
2023/02/27 15:53:18;;;;;;;;;1.00;1.00;;;;;28.53;28.82;102028.25;5053476;28;45615;-82
2023/02/27 15:55:49;;;;;;;;;1.33;1.00;;;;;28.50;29.05;102023.16;5046845;28;45380;-81
2023/02/27 15:58:29;;;;;;;;;1.33;0.67;;;;;28.54;29.01;102023.66;5053151;28;45694;-86
2023/02/27 16:01:14;;;;;;;;;0.00;0.00;;;;;28.51;29.07;102026.72;5044414;28;46245;-87
2023/02/27 16:03:46;;;;;;;;;4.33;0.00;;;;;28.53;28.53;102036.44;5045164;28;45527;-84
2023/02/27 16:06:18;;;;;;;;;1.00;1.00;;;;;28.53;28.60;102039.19;5054149;28;45469;-87
2023/02/27 16:09:05;;;;;;;;;2.33;1.33;;;;;28.54;28.61;102034.59;5041466;28;45668;-81
2023/02/27 16:11:33;;;;;;;;;0.67;0.00;;;;;28.54;28.65;102038.16;5053847;28;46228;-83
2023/02/27 16:13:59;;;;;;;;;2.33;1.33;;;;;28.53;28.74;102030.16;5049263;28;45454;-82
2023/02/27 16:16:36;;;;;;;;;1.00;1.00;;;;;28.54;28.60;102040.03;5057512;28;45551;-83
2023/02/27 16:19:25;;;;;;;;;2.00;2.00;;;;;28.53;28.60;102038.34;5054993;28;45538;-81
2023/02/27 16:22:14;;;;;;;;;2.00;0.00;;;;;28.49;29.16;102031.50;5046339;28;45438;-81
2023/02/27 16:24:39;;;;;;;;;0.00;0.00;;;;;28.44;28.49;102040.19;5055124;28;45604;-81
2023/02/27 16:27:05;;;;;;;;;1.33;1.33;;;;;28.42;28.90;102036.81;5055543;27;45340;-79
2023/02/27 16:29:41;;;;;;;;;0.00;0.00;;;;;28.37;28.78;102037.31;5054189;28;45370;-77
2023/02/27 16:32:22;;;;;;;;;3.00;0.00;;;;;28.30;28.98;102043.63;5052028;28;46204;-76
2023/02/27 16:34:48;;;;;;;;;0.33;0.33;;;;;28.22;28.91;102052.63;5055178;28;45585;-75
2023/02/27 16:37:32;;;;;;;;;1.00;1.00;;;;;28.14;28.95;102059.78;5055341;28;45378;-79
2023/02/27 16:39:58;;;;;;;;;1.67;1.67;;;;;28.08;28.89;102065.06;5061963;28;45727;-82
2023/02/27 16:42:23;;;;;;;;;0.33;0.33;;;;;28.03;28.92;102054.63;5043808;28;51375;-82
2023/02/27 16:44:48;;;;;;;;;1.33;1.00;;;;;28.01;28.33;102059.41;5060869;28;45414;-80
2023/02/27 16:47:14;;;;;;;;;1.00;1.00;;;;;27.97;29.04;102058.91;5054044;28;45452;-79
2023/02/27 16:49:39;;;;;;;;;3.00;1.00;;;;;27.96;28.30;102059.91;5053475;28;45573;-81
2023/02/27 16:52:08;;;;;;;;;1.33;1.33;;;;;27.94;28.23;102067.41;5054006;28;46143;-83
2023/02/27 16:54:34;;;;;;;;;1.00;1.00;;;;;27.91;28.57;102072.38;5052590;28;45571;-82
2023/02/27 16:56:59;;;;;;;;;1.00;1.00;;;;;27.88;28.83;102071.66;5053294;28;45781;-81
2023/02/27 16:59:29;;;;;;;;;1.00;0.33;;;;;27.88;28.95;102088.03;5063177;28;45414;-80
2023/02/27 17:01:56;;;;;;;;;0.00;0.00;;;;;27.84;28.52;102080.34;5052641;28;45962;-81
2023/02/27 17:04:23;;;;;;;;;1.00;1.00;;;;;27.77;28.27;102074.69;5063745;28;45778;-87
2023/02/27 17:06:48;;;;;;;;;2.33;1.00;;;;;27.74;28.44;102081.34;5050985;27;45574;-77